Clarendon, PA

2:12 PM EDT on August 29, 2015 (GMT -0400)
Parts Plus/Dan Backus Memorial Weather Station | | Change Station
CLOSE
Current Station
Personal Weather Station
Location: Jamestown, NY
Elevation: 1250 ft
Nearby Weather Stations

Elev 1250 ft 42.11 °N, 79.22 °W | Updated 27 seconds ago

Partly Cloudy
Partly Cloudy
76.5 °F
Feels Like 78 °F
N
3.0
Wind Variable Wind from NNW
Gusts 8.0 mph

Today
High -- | Low -- °F
--% Chance of Precip.
Yesterday
High -- | Low -- °F
Precip. -- in
6:39 AM 7:55 PM
Full, 100% visible
Pressure 30.18 in
Visibility 10.0 miles
Clouds Few 4400 ft
Few 5000 ft
Heat Index 78 °F
Dew Point 54 °F
Humidity 46%
Rainfall 0.00 in
Snow Depth Not available.
UV 9 out of 12
Pollen 9.50 out of 12
Air Quality Not available.
Flu Activity Not available.
METAR KJHW 291755Z AUTO 23006KT 10SM FEW044 FEW050 23/13 A3018 RMK AO1 10230 20130 57010
Pressure 30.18 in
Visibility 10.0 miles
Clouds Few 4400 ft
Few 5000 ft
Heat Index 78 °F
Dew Point 54 °F
Humidity 46%
Rainfall 0.00 in
Snow Depth Not available.
UV 9 out of 12
Pollen 9.50 out of 12
Air Quality Not available.
Flu Activity Not available.
METAR KJHW 291755Z AUTO 23006KT 10SM FEW044 FEW050 23/13 A3018 RMK AO1 10230 20130 57010

10-Day Weather Forecast

×

Almanac

Astronomy

Aug. 29, 2015 Rise Set
Actual Time
Civil Twilight
Nautical Twilight
Astronomical Twilight
Moon
Length of Visible Light
Length of Day
Tomorrow will be .
, % of the Moon is Illuminated

Today's Extremes

State Highs State Lows

Community

WunderPhotos

Upload Photos

1,850,752 photos uploaded!

WunderBlogs® & News

Nearby

Air Quality

  Air Quality AQ Index Pollutant
Not available.

Snow Depth

Station Depth Elevation

Earthquake Activity

City Distance Mag. Time & Date
Minimum magnitude displayed is 2.5.

Coastal Water Temperatures

Place Temperature

Stations

Nearby Weather Stations

Station Location Temp. Windchill Dew Point Humidity Wind Precip. Elev Updated Type